createdAt,value
2023-02-25T00:00:38.781Z,100052.47
2023-02-25T00:03:05.963Z,100054.09
2023-02-25T00:05:33.698Z,100044.06
2023-02-25T00:08:00.849Z,100049.13
2023-02-25T00:10:28.339Z,100045.38
2023-02-25T00:12:57.460Z,100035.19
2023-02-25T00:15:27.586Z,100035.41
2023-02-25T00:17:54.440Z,100032.81
2023-02-25T00:20:22.514Z,100030.31
2023-02-25T00:22:49.834Z,100023.41
2023-02-25T00:25:19.735Z,100016.84
2023-02-25T00:27:46.633Z,100010.06
2023-02-25T00:30:13.671Z,100017.72
2023-02-25T00:32:40.625Z,100009.31
2023-02-25T00:35:13.043Z,100011.91
2023-02-25T00:37:40.003Z,100000.63
2023-02-25T00:40:14.866Z,100005.34
2023-02-25T00:42:42.599Z,100003.88
2023-02-25T00:45:11.390Z,99995.81
2023-02-25T00:47:39.098Z,99998.56
2023-02-25T00:50:09.725Z,99990.13
2023-02-25T00:52:37.813Z,99986.28
2023-02-25T00:55:06.460Z,99986.88
2023-02-25T00:57:33.427Z,99990.72
2023-02-25T01:00:00.276Z,99988.59
2023-02-25T01:02:27.144Z,99980.88
2023-02-25T01:04:53.993Z,99981.56
2023-02-25T01:07:21.919Z,99981.69
2023-02-25T01:09:48.856Z,99975.88
2023-02-25T01:12:15.731Z,99968.72
2023-02-25T01:14:44.935Z,99967.69
2023-02-25T01:17:11.792Z,99959.69
2023-02-25T01:19:39.441Z,99955.34
2023-02-25T01:22:07.362Z,99958.13
2023-02-25T01:24:34.824Z,99953.13
2023-02-25T01:27:03.723Z,99960.88
2023-02-25T01:29:34.540Z,99949.66
2023-02-25T01:32:03.767Z,99945.00
2023-02-25T01:34:31.490Z,99940.88
2023-02-25T01:37:00.124Z,99941.25
2023-02-25T01:39:28.842Z,99931.69
2023-02-25T01:41:58.029Z,99928.19
2023-02-25T01:44:30.176Z,99928.00
2023-02-25T01:46:57.281Z,99924.78
2023-02-25T01:49:32.732Z,99935.16
2023-02-25T01:52:13.146Z,99933.75
2023-02-25T01:54:40.839Z,99935.69
2023-02-25T01:57:11.791Z,99929.41
2023-02-25T01:59:40.328Z,99926.47
2023-02-25T02:02:14.167Z,99919.97
2023-02-25T02:04:43.112Z,99933.69
2023-02-25T02:07:10.627Z,99928.22
2023-02-25T02:09:37.726Z,99924.31
2023-02-25T02:12:06.941Z,99932.44
2023-02-25T02:14:42.172Z,99923.53
2023-02-25T02:17:35.956Z,99922.25
2023-02-25T02:20:13.279Z,99931.47
2023-02-25T02:23:16.657Z,99920.63
2023-02-25T02:25:43.503Z,99911.69
2023-02-25T02:28:40.648Z,99925.69
2023-02-25T02:31:19.709Z,99917.91
2023-02-25T02:33:55.435Z,99927.09
2023-02-25T02:36:34.358Z,99930.03
2023-02-25T02:39:15.893Z,99924.88
2023-02-25T02:42:03.003Z,99913.63
2023-02-25T02:44:37.737Z,99916.56
2023-02-25T02:47:16.461Z,99899.53
2023-02-25T02:49:55.367Z,99897.81
2023-02-25T02:52:33.111Z,99893.28
2023-02-25T02:55:05.167Z,99893.69
2023-02-25T02:57:36.407Z,99897.97
2023-02-25T03:00:19.550Z,99890.97
2023-02-25T03:02:59.438Z,99889.16
2023-02-25T03:05:29.846Z,99884.88
2023-02-25T03:08:05.814Z,99893.06
2023-02-25T03:10:33.752Z,99887.13
2023-02-25T03:13:00.678Z,99889.44
2023-02-25T03:27:38.788Z,99888.03
2023-02-25T03:30:15.187Z,99882.63
2023-02-25T03:32:46.689Z,99882.75
2023-02-25T03:35:17.481Z,99879.34
2023-02-25T03:37:49.114Z,99880.34
2023-02-25T03:40:18.138Z,99873.88
2023-02-25T03:42:52.536Z,99870.97
2023-02-25T03:45:21.463Z,99878.78
2023-02-25T03:47:48.935Z,99876.16
2023-02-25T03:50:23.774Z,99864.59
2023-02-25T03:52:55.408Z,99869.06
2023-02-25T03:55:41.137Z,99862.81
2023-02-25T03:58:09.359Z,99865.00
2023-02-25T04:00:41.125Z,99858.22
2023-02-25T04:03:08.010Z,99864.09
2023-02-25T04:05:36.286Z,99864.81
2023-02-25T04:08:03.827Z,99867.34
2023-02-25T04:10:34.373Z,99862.19
2023-02-25T04:13:01.299Z,99856.59
2023-02-25T04:15:29.484Z,99854.88
2023-02-25T04:17:56.343Z,99858.13
2023-02-25T04:20:23.156Z,99846.47
2023-02-25T04:22:49.970Z,99854.59
2023-02-25T04:25:16.807Z,99843.66
2023-02-25T04:27:43.658Z,99849.22
2023-02-25T04:30:11.266Z,99843.13
2023-02-25T04:32:38.314Z,99837.56
2023-02-25T04:35:07.461Z,99842.44
2023-02-25T04:37:34.233Z,99847.78
2023-02-25T04:40:01.205Z,99842.41
2023-02-25T04:42:28.044Z,99841.69
2023-02-25T04:44:55.195Z,99838.34
2023-02-25T04:47:22.067Z,99847.56
2023-02-25T04:49:48.856Z,99847.56
2023-02-25T04:52:16.505Z,99843.03
2023-02-25T04:54:43.452Z,99841.66
2023-02-25T04:57:11.239Z,99838.31
2023-02-25T04:59:38.572Z,99839.09
2023-02-25T05:02:06.248Z,99836.00
2023-02-25T05:04:34.953Z,99837.88
2023-02-25T05:07:02.303Z,99839.44
2023-02-25T05:09:29.388Z,99841.78
2023-02-25T05:11:56.366Z,99844.31
2023-02-25T05:14:23.433Z,99854.09
2023-02-25T05:16:50.371Z,99855.00
2023-02-25T05:19:19.295Z,99853.44
2023-02-25T05:21:46.392Z,99849.31
2023-02-25T05:24:13.285Z,99843.53
2023-02-25T05:26:40.319Z,99848.59
2023-02-25T05:29:07.386Z,99835.34
2023-02-25T05:31:34.630Z,99849.28
2023-02-25T05:34:01.883Z,99847.53
2023-02-25T05:36:29.587Z,99842.56
2023-02-25T05:39:03.031Z,99847.06
2023-02-25T05:41:30.782Z,99847.38
2023-02-25T05:43:58.459Z,99851.41
2023-02-25T05:46:26.797Z,99845.88
2023-02-25T05:48:54.487Z,99840.66
2023-02-25T05:51:23.609Z,99850.72
2023-02-25T05:53:53.737Z,99847.31
2023-02-25T05:56:23.351Z,99842.63
2023-02-25T05:58:50.790Z,99846.28
2023-02-25T06:01:22.861Z,99841.97
2023-02-25T06:03:51.789Z,99842.88
2023-02-25T06:06:24.595Z,99839.91
2023-02-25T06:08:52.099Z,99839.31
2023-02-25T06:11:22.075Z,99847.06
2023-02-25T06:13:50.640Z,99856.41
2023-02-25T06:16:18.336Z,99853.56
2023-02-25T06:18:47.104Z,99857.97
2023-02-25T06:21:15.403Z,99864.03
2023-02-25T06:23:44.069Z,99868.06
2023-02-25T06:26:13.765Z,99868.19
2023-02-25T06:28:40.987Z,99868.72
2023-02-25T06:31:14.342Z,99872.06
2023-02-25T06:33:41.421Z,99870.59
2023-02-25T06:36:09.238Z,99871.25
2023-02-25T06:38:36.601Z,99852.28
2023-02-25T06:41:08.667Z,99866.06
2023-02-25T06:43:37.001Z,99855.34
2023-02-25T06:46:08.399Z,99863.28
2023-02-25T06:48:35.798Z,99869.47
2023-02-25T06:51:04.828Z,99878.50
2023-02-25T06:53:31.716Z,99873.94
2023-02-25T06:55:59.042Z,99872.25
2023-02-25T06:58:26.008Z,99867.50
2023-02-25T07:00:53.023Z,99876.25
2023-02-25T07:03:19.860Z,99868.56
2023-02-25T07:05:46.828Z,99866.97
2023-02-25T07:08:13.763Z,99863.00
2023-02-25T07:10:41.755Z,99870.59
2023-02-25T07:13:09.768Z,99881.88
2023-02-25T07:15:37.162Z,99873.84
2023-02-25T07:18:04.466Z,99870.03
2023-02-25T07:20:31.369Z,99877.78
2023-02-25T07:22:58.250Z,99869.75
2023-02-25T07:25:25.237Z,99873.25
2023-02-25T07:27:54.425Z,99874.22
2023-02-25T07:30:21.693Z,99870.59
2023-02-25T07:32:48.833Z,99873.44
2023-02-25T07:35:15.931Z,99864.22
2023-02-25T07:37:42.813Z,99867.94
2023-02-25T07:40:13.073Z,99859.44
2023-02-25T07:42:43.259Z,99857.53
2023-02-25T07:45:12.234Z,99859.88
2023-02-25T07:47:39.088Z,99855.72
2023-02-25T07:50:07.902Z,99854.69
2023-02-25T07:52:34.961Z,99852.44
2023-02-25T07:55:01.863Z,99851.16
2023-02-25T07:57:29.188Z,99854.72
2023-02-25T07:59:56.441Z,99850.88
2023-02-25T08:02:23.372Z,99854.16
2023-02-25T08:04:50.392Z,99854.69
2023-02-25T08:07:17.722Z,99857.97
2023-02-25T08:09:44.602Z,99844.63
2023-02-25T08:12:11.583Z,99850.03
2023-02-25T08:14:40.021Z,99842.53
2023-02-25T08:17:06.977Z,99842.78
2023-02-25T08:19:33.889Z,99833.22
2023-02-25T08:22:00.683Z,99822.56
2023-02-25T08:24:27.937Z,99833.91
2023-02-25T08:26:54.907Z,99829.75
2023-02-25T08:29:22.230Z,99829.63
2023-02-25T08:31:52.516Z,99825.28
2023-02-25T08:34:19.519Z,99815.97
2023-02-25T08:36:46.335Z,99819.22
2023-02-25T08:39:13.447Z,99812.25
2023-02-25T08:41:40.295Z,99801.66
2023-02-25T08:44:07.243Z,99791.97
2023-02-25T08:46:37.221Z,99784.78
2023-02-25T08:49:05.360Z,99785.00
2023-02-25T08:51:35.591Z,99786.56
2023-02-25T08:54:12.065Z,99786.16
2023-02-25T08:56:44.274Z,99780.78
2023-02-25T08:59:14.884Z,99779.25
2023-02-25T09:01:45.418Z,99771.47
2023-02-25T09:04:14.000Z,99759.38
2023-02-25T09:06:41.020Z,99769.72
2023-02-25T09:09:08.069Z,99759.19
2023-02-25T09:11:35.083Z,99754.47
2023-02-25T09:14:01.945Z,99749.63
2023-02-25T09:16:30.437Z,99749.22
2023-02-25T09:18:57.913Z,99739.84
2023-02-25T09:21:25.289Z,99724.38
2023-02-25T09:23:52.875Z,99711.75
2023-02-25T09:26:21.654Z,99717.97
2023-02-25T09:28:49.819Z,99707.34
2023-02-25T09:31:18.193Z,99703.81
2023-02-25T09:33:45.658Z,99709.09
2023-02-25T09:36:17.606Z,99713.94
2023-02-25T09:38:45.663Z,99713.34
2023-02-25T09:41:39.139Z,99706.13
2023-02-25T09:44:08.658Z,99708.16
2023-02-25T09:46:41.553Z,99705.50
2023-02-25T09:49:34.590Z,99701.06
2023-02-25T09:52:13.547Z,99684.94
2023-02-25T09:54:46.946Z,99690.91
2023-02-25T09:57:19.282Z,99690.78
2023-02-25T09:59:47.491Z,99683.34
2023-02-25T10:02:41.028Z,99687.31
2023-02-25T10:05:21.738Z,99668.63
2023-02-25T10:08:19.108Z,99655.84
2023-02-25T10:11:06.271Z,99649.94
2023-02-25T10:13:54.396Z,99640.59
2023-02-25T10:16:39.599Z,99642.91
2023-02-25T10:19:37.830Z,99640.66
2023-02-25T10:22:08.103Z,99626.16
2023-02-25T10:24:42.383Z,99619.03
2023-02-25T10:27:24.787Z,99632.59
2023-02-25T10:29:59.924Z,99620.94
2023-02-25T10:32:31.463Z,99606.91
2023-02-25T10:35:13.878Z,99614.91
2023-02-25T10:37:40.748Z,99600.06
2023-02-25T10:40:11.389Z,99590.44
2023-02-25T10:42:38.619Z,99578.75
2023-02-25T10:45:14.497Z,99585.28
2023-02-25T10:47:45.253Z,99593.63
2023-02-25T10:50:15.016Z,99579.06
2023-02-25T10:53:16.049Z,99584.69
2023-02-25T10:55:54.702Z,99583.13
2023-02-25T10:58:27.977Z,99574.72
2023-02-25T11:01:10.773Z,99573.91
2023-02-25T11:03:54.650Z,99567.66
2023-02-25T11:06:32.466Z,99563.28
2023-02-25T11:09:01.204Z,99562.75
2023-02-25T11:11:34.083Z,99557.34
2023-02-25T11:14:07.433Z,99555.50
2023-02-25T11:16:37.239Z,99557.53
2023-02-25T11:19:25.457Z,99550.16
2023-02-25T11:21:53.337Z,99538.44
2023-02-25T11:24:33.561Z,99533.72
2023-02-25T11:27:02.537Z,99512.63
2023-02-25T11:29:34.049Z,99513.44
2023-02-25T11:32:22.818Z,99518.91
2023-02-25T11:34:53.455Z,99505.38
2023-02-25T11:37:45.465Z,99501.94
2023-02-25T11:40:21.990Z,99503.81
2023-02-25T11:43:07.054Z,99507.56
2023-02-25T11:45:38.544Z,99515.81
2023-02-25T11:48:16.639Z,99514.06
2023-02-25T11:51:05.430Z,99520.72
2023-02-25T11:53:52.296Z,99513.44
2023-02-25T11:56:25.468Z,99516.44
2023-02-25T11:59:31.512Z,99509.44
2023-02-25T12:02:04.165Z,99505.41
2023-02-25T12:05:06.075Z,99494.19
2023-02-25T12:08:14.083Z,99478.28
2023-02-25T12:10:59.092Z,99481.56
2023-02-25T12:13:36.306Z,99482.31
2023-02-25T12:16:12.299Z,99484.09
2023-02-25T12:18:51.389Z,99476.31
2023-02-25T12:21:47.816Z,99480.91
2023-02-25T12:24:21.394Z,99485.16
2023-02-25T12:27:08.598Z,99477.81
2023-02-25T12:29:41.388Z,99483.88
2023-02-25T12:32:33.766Z,99474.44
2023-02-25T12:35:07.043Z,99454.28
2023-02-25T12:37:46.080Z,99470.78
2023-02-25T12:40:39.184Z,99459.88
2023-02-25T12:43:30.868Z,99439.78
2023-02-25T12:46:35.104Z,99451.09
2023-02-25T12:49:25.196Z,99456.75
2023-02-25T12:52:10.132Z,99453.91
2023-02-25T12:55:28.456Z,99451.50
2023-02-25T12:58:29.981Z,99447.03
2023-02-25T13:01:02.871Z,99448.22
2023-02-25T13:03:48.255Z,99466.44
2023-02-25T13:06:27.164Z,99450.03
2023-02-25T13:09:16.088Z,99451.13
2023-02-25T13:12:16.962Z,99447.41
2023-02-25T13:15:25.816Z,99444.09
2023-02-25T13:18:07.185Z,99446.88
2023-02-25T13:21:05.005Z,99443.47
2023-02-25T13:23:36.034Z,99432.31
2023-02-25T13:26:23.457Z,99424.97
2023-02-25T13:29:05.178Z,99440.69
2023-02-25T13:31:47.132Z,99426.72
2023-02-25T13:34:16.933Z,99439.16
2023-02-25T13:36:49.898Z,99440.41
2023-02-25T13:39:47.655Z,99436.09
2023-02-25T13:42:43.961Z,99430.97
2023-02-25T13:45:46.533Z,99436.50
2023-02-25T13:48:26.265Z,99433.34
2023-02-25T13:50:59.147Z,99426.94
2023-02-25T13:54:03.369Z,99432.53
2023-02-25T13:56:51.667Z,99419.03
2023-02-25T13:59:33.874Z,99413.47
2023-02-25T14:02:34.407Z,99425.00
2023-02-25T14:05:23.989Z,99416.63
2023-02-25T14:08:10.109Z,99407.47
2023-02-25T14:11:03.314Z,99412.63
2023-02-25T14:13:57.439Z,99411.50
2023-02-25T14:16:33.012Z,99411.06
2023-02-25T14:19:02.938Z,99411.09
2023-02-25T14:21:59.010Z,99409.91
2023-02-25T14:24:42.276Z,99416.72
2023-02-25T14:27:25.255Z,99416.72
2023-02-25T14:30:19.972Z,99410.28
2023-02-25T14:33:18.484Z,99416.34
2023-02-25T14:36:26.724Z,99421.16
2023-02-25T14:39:20.601Z,99420.75
2023-02-25T14:41:52.539Z,99428.75
2023-02-25T14:44:30.299Z,99422.38
2023-02-25T14:47:02.807Z,99422.75
2023-02-25T14:49:54.818Z,99429.88
2023-02-25T14:52:49.230Z,99426.28
2023-02-25T14:55:16.338Z,99422.28
2023-02-25T14:58:19.453Z,99421.50
2023-02-25T15:01:07.544Z,99431.94
2023-02-25T15:04:02.443Z,99414.78
2023-02-25T15:07:06.982Z,99409.59
2023-02-25T15:09:36.672Z,99409.69
2023-02-25T15:12:16.906Z,99416.09
2023-02-25T15:29:59.018Z,99403.72
2023-02-25T15:32:30.509Z,99409.31
2023-02-25T15:34:59.430Z,99402.53
2023-02-25T15:37:55.300Z,99413.28
2023-02-25T15:40:24.381Z,99408.91
2023-02-25T15:42:51.524Z,99423.66
2023-02-25T15:45:27.666Z,99425.66
2023-02-25T15:48:06.818Z,99423.22
2023-02-25T15:50:42.932Z,99427.63
2023-02-25T15:53:12.029Z,99424.41
2023-02-25T15:55:41.633Z,99433.97
2023-02-25T15:58:23.650Z,99441.91
2023-02-25T16:01:01.923Z,99447.53
2023-02-25T16:03:31.766Z,99451.06
2023-02-25T16:06:04.404Z,99449.09
2023-02-25T16:08:47.191Z,99459.44
2023-02-25T16:11:35.298Z,99456.25
2023-02-25T16:14:17.401Z,99464.19
2023-02-25T16:16:51.583Z,99478.13
2023-02-25T16:19:22.842Z,99468.13
2023-02-25T16:21:56.064Z,99481.97
2023-02-25T16:24:23.684Z,99488.81
2023-02-25T16:27:04.141Z,99495.16
2023-02-25T16:30:02.822Z,99486.72
2023-02-25T16:32:41.617Z,99503.38
2023-02-25T16:35:18.602Z,99493.78
2023-02-25T16:38:09.582Z,99489.03
2023-02-25T16:40:39.555Z,99493.00
2023-02-25T16:43:11.889Z,99504.91
2023-02-25T16:45:53.144Z,99504.09
2023-02-25T16:48:27.761Z,99513.97
2023-02-25T16:50:55.818Z,99508.41
2023-02-25T16:53:26.947Z,99518.78
2023-02-25T16:56:00.563Z,99517.13
2023-02-25T16:58:30.573Z,99525.03
2023-02-25T17:00:59.205Z,99535.00
2023-02-25T17:03:33.192Z,99534.19
2023-02-25T17:06:06.963Z,99538.94
2023-02-25T17:08:35.134Z,99541.22
2023-02-25T17:11:05.720Z,99546.31
2023-02-25T17:13:36.704Z,99545.50
2023-02-25T17:16:05.644Z,99535.94
2023-02-25T17:18:48.904Z,99539.03
2023-02-25T17:21:27.304Z,99539.53
2023-02-25T17:23:54.574Z,99531.19
2023-02-25T17:26:21.898Z,99536.28
2023-02-25T17:28:52.639Z,99551.44
2023-02-25T17:31:26.877Z,99551.84
2023-02-25T17:34:02.822Z,99551.44
2023-02-25T17:36:32.266Z,99557.81
2023-02-25T17:39:06.221Z,99570.44
2023-02-25T17:41:34.708Z,99568.84
2023-02-25T17:44:01.655Z,99565.25
2023-02-25T17:46:36.425Z,99554.13
2023-02-25T17:49:18.199Z,99551.25
2023-02-25T17:51:45.539Z,99556.44
2023-02-25T17:54:18.620Z,99559.97
2023-02-25T17:56:46.275Z,99571.09
2023-02-25T17:59:13.010Z,99570.22
2023-02-25T18:01:53.988Z,99573.38
2023-02-25T18:04:22.433Z,99572.50
2023-02-25T18:06:49.435Z,99576.03
2023-02-25T18:09:49.611Z,99567.69
2023-02-25T18:12:26.429Z,99568.81
2023-02-25T18:15:16.619Z,99572.31
2023-02-25T18:17:49.046Z,99570.72
2023-02-25T18:20:30.697Z,99573.84
2023-02-25T18:23:02.468Z,99577.78
2023-02-25T18:25:31.312Z,99572.50
2023-02-25T18:27:58.916Z,99582.09
2023-02-25T18:30:27.982Z,99590.38
2023-02-25T18:32:55.385Z,99587.59
2023-02-25T18:35:22.362Z,99578.88
2023-02-25T18:37:51.522Z,99595.94
2023-02-25T18:40:31.863Z,99595.94
2023-02-25T18:43:00.110Z,99600.31
2023-02-25T18:45:29.568Z,99599.81
2023-02-25T18:47:57.298Z,99605.22
2023-02-25T18:50:25.002Z,99598.03
2023-02-25T18:52:51.910Z,99606.59
2023-02-25T18:55:27.776Z,99606.22
2023-02-25T18:57:54.926Z,99604.25
2023-02-25T19:00:24.211Z,99602.63
2023-02-25T19:02:58.084Z,99596.69
2023-02-25T19:05:25.953Z,99606.09
2023-02-25T19:07:53.069Z,99599.72
2023-02-25T19:10:24.949Z,99604.53
2023-02-25T19:12:58.760Z,99596.72
2023-02-25T19:15:25.657Z,99607.16
2023-02-25T19:17:52.639Z,99604.59
2023-02-25T19:20:20.652Z,99606.22
2023-02-25T19:22:50.691Z,99603.00
2023-02-25T19:25:22.997Z,99606.03
2023-02-25T19:27:51.187Z,99609.00
2023-02-25T19:30:21.933Z,99618.13
2023-02-25T19:32:48.959Z,99628.69
2023-02-25T19:35:16.377Z,99608.81
2023-02-25T19:37:43.965Z,99611.50
2023-02-25T19:40:14.719Z,99599.06
2023-02-25T19:42:43.339Z,99609.19
2023-02-25T19:45:15.721Z,99595.31
2023-02-25T19:47:43.034Z,99592.91
2023-02-25T19:50:11.774Z,99601.63
2023-02-25T19:52:38.848Z,99599.22
2023-02-25T19:55:06.558Z,99590.81
2023-02-25T19:57:33.946Z,99598.34
2023-02-25T20:00:00.905Z,99599.16
2023-02-25T20:02:27.747Z,99604.25
2023-02-25T20:04:54.727Z,99608.63
2023-02-25T20:07:21.643Z,99622.38
2023-02-25T20:09:48.607Z,99614.81
2023-02-25T20:12:15.614Z,99618.34
2023-02-25T20:14:42.519Z,99606.50
2023-02-25T20:17:09.460Z,99614.81
2023-02-25T20:19:36.613Z,99614.38
2023-02-25T20:22:05.670Z,99604.38
2023-02-25T20:24:33.802Z,99613.03
2023-02-25T20:27:01.030Z,99614.72
2023-02-25T20:29:28.580Z,99607.81
2023-02-25T20:31:58.824Z,99610.88
2023-02-25T20:34:26.547Z,99602.84
2023-02-25T20:36:53.385Z,99612.22
2023-02-25T20:39:44.075Z,99612.94
2023-02-25T20:42:17.765Z,99618.78
2023-02-25T20:44:44.884Z,99620.34
2023-02-25T20:47:20.199Z,99610.81
2023-02-25T20:49:47.884Z,99615.22
2023-02-25T20:52:16.093Z,99620.75
2023-02-25T20:54:43.875Z,99617.38
2023-02-25T20:57:15.700Z,99629.44
2023-02-25T20:59:42.632Z,99622.59
2023-02-25T21:02:11.487Z,99621.19
2023-02-25T21:04:38.700Z,99619.06
2023-02-25T21:07:07.140Z,99625.34
2023-02-25T21:09:34.728Z,99620.16
2023-02-25T21:12:02.178Z,99623.31
2023-02-25T21:14:29.114Z,99622.44
2023-02-25T21:16:56.287Z,99630.66
2023-02-25T21:19:28.217Z,99622.78
2023-02-25T21:21:55.936Z,99628.16
2023-02-25T21:24:23.176Z,99627.44
2023-02-25T21:26:50.325Z,99638.53
2023-02-25T21:29:17.288Z,99638.88
2023-02-25T21:31:44.406Z,99634.13
2023-02-25T21:34:13.075Z,99627.78
2023-02-25T21:36:41.472Z,99634.88
2023-02-25T21:39:12.753Z,99631.38
2023-02-25T21:41:44.390Z,99629.84
2023-02-25T21:44:12.330Z,99632.56
2023-02-25T21:46:40.099Z,99629.41
2023-02-25T21:49:07.122Z,99618.75
2023-02-25T21:51:34.137Z,99618.88
2023-02-25T21:54:01.568Z,99610.63
2023-02-25T21:56:30.009Z,99613.38
2023-02-25T21:58:59.536Z,99618.94
2023-02-25T22:01:32.657Z,99602.22
2023-02-25T22:04:00.068Z,99616.09
2023-02-25T22:06:27.657Z,99613.66
2023-02-25T22:08:55.846Z,99607.78
2023-02-25T22:11:31.667Z,99601.44
2023-02-25T22:13:59.925Z,99598.38
2023-02-25T22:16:27.581Z,99595.66
2023-02-25T22:18:54.712Z,99601.94
2023-02-25T22:21:26.172Z,99594.72
2023-02-25T22:23:55.936Z,99596.31
2023-02-25T22:26:25.721Z,99599.06
2023-02-25T22:28:55.112Z,99595.78
2023-02-25T22:31:22.474Z,99593.19
2023-02-25T22:33:49.712Z,99590.84
2023-02-25T22:36:18.414Z,99591.28
2023-02-25T22:38:46.762Z,99584.06
2023-02-25T22:41:15.368Z,99583.44
2023-02-25T22:43:43.012Z,99589.25
2023-02-25T22:46:13.040Z,99592.94
2023-02-25T22:48:41.777Z,99588.28
2023-02-25T22:51:11.946Z,99591.47
2023-02-25T22:53:40.495Z,99592.94
2023-02-25T22:56:09.850Z,99596.94
2023-02-25T22:58:40.776Z,99587.88
2023-02-25T23:01:09.452Z,99596.41
2023-02-25T23:03:38.597Z,99590.59
2023-02-25T23:06:06.786Z,99590.75
2023-02-25T23:08:35.168Z,99584.69
2023-02-25T23:11:09.275Z,99586.91
2023-02-25T23:13:36.890Z,99594.06
2023-02-25T23:16:04.675Z,99601.56
2023-02-25T23:18:33.634Z,99603.53
2023-02-25T23:21:05.769Z,99610.47
2023-02-25T23:23:38.680Z,99612.88
2023-02-25T23:26:08.429Z,99610.53
2023-02-25T23:28:36.709Z,99619.31
2023-02-25T23:31:04.745Z,99614.84
2023-02-25T23:33:32.167Z,99609.88
2023-02-25T23:36:01.279Z,99614.41
2023-02-25T23:38:28.199Z,99616.16
2023-02-25T23:41:01.325Z,99608.22
2023-02-25T23:43:28.146Z,99615.22
2023-02-25T23:45:55.061Z,99616.38
2023-02-25T23:48:22.006Z,99609.25
2023-02-25T23:50:48.904Z,99611.50
2023-02-25T23:53:15.952Z,99617.78
2023-02-25T23:55:42.803Z,99623.75
2023-02-25T23:58:09.686Z,99626.91
